createdAt,value
2024-03-03T00:01:10.185Z,39.73
2024-03-03T00:03:37.840Z,40.70
2024-03-03T00:06:09.118Z,42.13
2024-03-03T00:08:37.470Z,40.27
2024-03-03T00:11:06.381Z,41.30
2024-03-03T00:13:35.162Z,39.87
2024-03-03T00:16:07.930Z,41.87
2024-03-03T00:18:40.053Z,43.23
2024-03-03T00:21:15.234Z,40.57
2024-03-03T00:23:43.387Z,42.63
2024-03-03T00:26:10.838Z,43.53
2024-03-03T00:28:38.255Z,40.77
2024-03-03T00:31:05.811Z,42.90
2024-03-03T00:33:33.318Z,45.70
2024-03-03T00:36:00.741Z,44.53
2024-03-03T00:38:28.205Z,43.30
2024-03-03T00:40:55.801Z,41.80
2024-03-03T00:43:23.593Z,42.70
2024-03-03T00:45:51.095Z,44.60
2024-03-03T00:48:18.508Z,39.10
2024-03-03T00:50:45.879Z,42.73
2024-03-03T00:53:13.341Z,42.83
2024-03-03T00:55:47.454Z,44.00
2024-03-03T00:58:16.184Z,40.47
2024-03-03T01:00:44.983Z,44.90
2024-03-03T01:03:12.423Z,42.50
2024-03-03T01:05:39.811Z,41.30
2024-03-03T01:08:07.634Z,43.83
2024-03-03T01:10:35.067Z,43.17
2024-03-03T01:13:02.622Z,44.00
2024-03-03T01:15:30.138Z,41.83
2024-03-03T01:17:57.449Z,43.60
2024-03-03T01:20:26.346Z,43.00
2024-03-03T01:22:53.798Z,46.50
2024-03-03T01:25:21.332Z,46.70
2024-03-03T01:27:48.836Z,41.33
2024-03-03T01:30:16.281Z,41.53
2024-03-03T01:32:43.756Z,43.70
2024-03-03T01:35:11.314Z,41.03
2024-03-03T01:37:38.704Z,43.93
2024-03-03T01:40:08.085Z,44.87
2024-03-03T01:42:35.730Z,45.10
2024-03-03T01:45:04.071Z,43.37
2024-03-03T01:47:32.608Z,43.63
2024-03-03T01:50:00.410Z,43.30
2024-03-03T01:52:30.063Z,43.27
2024-03-03T01:54:58.795Z,42.50
2024-03-03T01:57:26.304Z,41.67
2024-03-03T01:59:56.089Z,44.60
2024-03-03T02:02:24.489Z,44.07
2024-03-03T02:04:52.425Z,42.60
2024-03-03T02:07:22.402Z,41.57
2024-03-03T02:09:50.325Z,44.13
2024-03-03T02:12:19.043Z,43.63
2024-03-03T02:14:46.539Z,43.37
2024-03-03T02:17:13.937Z,42.80
2024-03-03T02:19:41.852Z,45.47
2024-03-03T02:22:09.311Z,44.03
2024-03-03T02:24:36.780Z,42.07
2024-03-03T02:27:05.958Z,44.33
2024-03-03T02:29:33.490Z,44.90
2024-03-03T02:32:00.875Z,45.07
2024-03-03T02:34:29.953Z,43.90
2024-03-03T02:36:57.430Z,47.00
2024-03-03T02:39:24.893Z,45.33
2024-03-03T02:41:52.341Z,45.80
2024-03-03T02:44:19.756Z,42.37
2024-03-03T02:46:49.395Z,45.43
2024-03-03T02:49:16.872Z,43.67
2024-03-03T02:51:45.305Z,44.37
2024-03-03T02:54:14.197Z,46.53
2024-03-03T02:56:41.583Z,45.10
2024-03-03T02:59:08.964Z,48.57
2024-03-03T03:01:36.485Z,45.13
2024-03-03T03:04:04.756Z,44.77
2024-03-03T03:06:32.203Z,41.47
2024-03-03T03:08:59.554Z,44.40
2024-03-03T03:11:27.015Z,46.27
2024-03-03T03:13:54.709Z,43.20
2024-03-03T03:16:22.196Z,44.47
2024-03-03T03:18:49.603Z,46.20
2024-03-03T03:21:17.082Z,45.13
2024-03-03T03:23:44.489Z,45.23
2024-03-03T03:26:12.174Z,43.93
2024-03-03T03:28:43.113Z,47.60
2024-03-03T03:31:10.593Z,45.57
2024-03-03T03:33:38.022Z,48.40
2024-03-03T03:36:12.323Z,42.63
2024-03-03T03:38:39.926Z,48.20
2024-03-03T03:41:07.388Z,45.00
2024-03-03T03:43:34.876Z,47.13
2024-03-03T03:46:02.424Z,49.80
2024-03-03T03:48:29.936Z,46.43
2024-03-03T03:50:57.470Z,49.53
2024-03-03T03:53:24.778Z,42.37
2024-03-03T03:55:52.124Z,43.23
2024-03-03T03:58:19.585Z,43.37
2024-03-03T04:00:47.187Z,48.77
2024-03-03T04:03:14.646Z,47.60
2024-03-03T04:05:42.072Z,44.53
2024-03-03T04:08:09.526Z,43.87
2024-03-03T04:10:36.919Z,48.80
2024-03-03T04:13:04.949Z,46.70
2024-03-03T04:15:32.724Z,49.37
2024-03-03T04:18:00.228Z,43.03
2024-03-03T04:20:27.769Z,42.53
2024-03-03T04:22:55.151Z,43.93
2024-03-03T04:25:22.643Z,46.57
2024-03-03T04:27:50.131Z,42.87
2024-03-03T04:30:18.132Z,42.47
2024-03-03T04:32:45.655Z,46.57
2024-03-03T04:35:13.109Z,43.87
2024-03-03T04:37:40.805Z,45.00
2024-03-03T04:40:09.855Z,43.87
2024-03-03T04:42:37.162Z,47.07
2024-03-03T04:45:07.894Z,42.70
2024-03-03T04:47:36.152Z,44.90
2024-03-03T04:50:03.884Z,43.10
2024-03-03T04:52:31.313Z,42.43
2024-03-03T04:54:58.688Z,41.97
2024-03-03T04:57:26.123Z,44.43
2024-03-03T04:59:53.685Z,43.77
2024-03-03T05:02:21.125Z,45.50
2024-03-03T05:04:48.544Z,45.10
2024-03-03T05:07:17.221Z,44.27
2024-03-03T05:09:44.743Z,46.73
2024-03-03T05:12:12.173Z,44.33
2024-03-03T05:14:39.495Z,46.10
2024-03-03T05:17:06.816Z,44.93
2024-03-03T05:19:34.205Z,42.63
2024-03-03T05:22:01.623Z,43.93
2024-03-03T05:24:29.140Z,43.53
2024-03-03T05:26:56.455Z,44.87
2024-03-03T05:29:25.370Z,44.20
2024-03-03T05:31:52.769Z,43.87
2024-03-03T05:34:20.245Z,45.33
2024-03-03T05:36:47.974Z,43.33
2024-03-03T05:39:19.746Z,47.00
2024-03-03T05:41:47.088Z,50.50
2024-03-03T05:44:14.784Z,49.17
2024-03-03T05:46:42.179Z,46.43
2024-03-03T05:49:09.705Z,46.40
2024-03-03T05:51:37.879Z,45.07
2024-03-03T05:54:06.159Z,47.30
2024-03-03T05:56:36.411Z,51.57
2024-03-03T05:59:05.485Z,46.87
2024-03-03T06:01:33.323Z,45.77
2024-03-03T06:04:01.012Z,48.67
2024-03-03T06:06:28.835Z,48.07
2024-03-03T06:08:57.310Z,45.70
2024-03-03T06:11:24.783Z,45.23
2024-03-03T06:13:53.267Z,47.77
2024-03-03T06:16:20.645Z,45.47
2024-03-03T06:18:48.325Z,46.90
2024-03-03T06:21:16.916Z,45.47
2024-03-03T06:23:44.230Z,45.60
2024-03-03T06:26:16.422Z,49.57
2024-03-03T06:28:46.386Z,45.93
2024-03-03T06:31:14.452Z,46.50
2024-03-03T06:33:41.904Z,48.40
2024-03-03T06:36:18.523Z,49.30
2024-03-03T06:38:46.536Z,46.27
2024-03-03T06:41:15.990Z,47.53
2024-03-03T06:43:44.667Z,49.80
2024-03-03T06:46:13.158Z,50.07
2024-03-03T06:48:41.272Z,45.57
2024-03-03T06:51:09.129Z,47.03
2024-03-03T06:53:40.193Z,45.27
2024-03-03T06:56:16.654Z,45.83
2024-03-03T06:58:47.646Z,45.70
2024-03-03T07:01:16.655Z,45.67
2024-03-03T07:03:56.443Z,47.87
2024-03-03T07:06:24.190Z,46.50
2024-03-03T07:08:51.673Z,44.57
2024-03-03T07:11:19.182Z,45.30
2024-03-03T07:13:46.692Z,44.63
2024-03-03T07:16:14.017Z,43.93
2024-03-03T07:18:41.630Z,44.07
2024-03-03T07:21:09.330Z,43.60
2024-03-03T07:23:36.817Z,44.27
2024-03-03T07:26:04.295Z,42.00
2024-03-03T07:28:31.690Z,40.30
2024-03-03T07:30:59.064Z,40.53
2024-03-03T07:33:26.426Z,41.90
2024-03-03T07:35:53.791Z,40.03
2024-03-03T07:38:21.287Z,39.83
2024-03-03T07:40:48.680Z,41.20
2024-03-03T07:43:16.446Z,39.00
2024-03-03T07:45:43.930Z,38.20
2024-03-03T07:48:11.404Z,39.20
2024-03-03T07:50:38.848Z,41.23
2024-03-03T07:53:06.982Z,37.87
2024-03-03T07:55:34.422Z,37.20
2024-03-03T07:58:01.890Z,36.47
2024-03-03T08:00:35.144Z,35.77
2024-03-03T08:03:07.308Z,35.93
2024-03-03T08:05:35.392Z,35.60
2024-03-03T08:08:05.858Z,36.23
2024-03-03T08:10:34.114Z,34.37
2024-03-03T08:13:01.989Z,35.43
2024-03-03T08:15:29.872Z,33.37
2024-03-03T08:18:01.639Z,33.63
2024-03-03T08:20:29.971Z,33.87
2024-03-03T08:22:57.491Z,34.83
2024-03-03T08:25:26.081Z,34.37
2024-03-03T08:27:58.362Z,35.10
2024-03-03T08:30:26.287Z,32.70
2024-03-03T08:32:54.681Z,33.43
2024-03-03T08:35:22.124Z,33.33
2024-03-03T08:37:49.527Z,32.77
2024-03-03T08:40:20.543Z,33.13
2024-03-03T08:42:48.012Z,31.60
2024-03-03T08:45:15.474Z,31.90
2024-03-03T08:47:43.558Z,32.77
2024-03-03T08:50:11.775Z,32.80
2024-03-03T08:52:40.497Z,31.17
2024-03-03T08:55:08.342Z,29.93
2024-03-03T08:57:35.789Z,29.80
2024-03-03T09:00:03.817Z,29.77
2024-03-03T09:02:31.223Z,28.67
2024-03-03T09:05:08.869Z,29.13
2024-03-03T09:07:37.686Z,28.70
2024-03-03T09:10:06.434Z,28.60
2024-03-03T09:12:34.337Z,29.30
2024-03-03T09:15:02.030Z,26.63
2024-03-03T09:17:29.476Z,28.10
2024-03-03T09:19:56.848Z,27.67
2024-03-03T09:22:25.974Z,27.83
2024-03-03T09:24:53.753Z,28.13
2024-03-03T09:27:25.443Z,26.60
2024-03-03T09:29:54.002Z,27.40
2024-03-03T09:32:21.791Z,25.90
2024-03-03T09:34:49.103Z,25.40
2024-03-03T09:37:16.607Z,24.53
2024-03-03T09:39:44.574Z,25.67
2024-03-03T09:42:12.500Z,26.27
2024-03-03T09:44:45.389Z,24.97
2024-03-03T09:47:14.653Z,24.90
2024-03-03T09:49:46.713Z,25.73
2024-03-03T09:52:15.439Z,23.93
2024-03-03T09:54:43.837Z,24.97
2024-03-03T09:57:15.257Z,24.20
2024-03-03T09:59:43.090Z,24.53
2024-03-03T10:02:19.130Z,24.10
2024-03-03T10:04:49.879Z,23.33
2024-03-03T10:07:24.632Z,23.07
2024-03-03T10:10:05.273Z,22.23
2024-03-03T10:12:35.130Z,23.10
2024-03-03T10:15:06.418Z,23.27
2024-03-03T10:17:33.886Z,21.00
2024-03-03T10:20:10.133Z,18.97
2024-03-03T10:22:39.443Z,20.50
2024-03-03T10:25:19.534Z,20.57
2024-03-03T10:27:49.860Z,19.20
2024-03-03T10:30:23.802Z,24.43
2024-03-03T10:32:51.889Z,20.50
2024-03-03T10:35:20.330Z,19.60
2024-03-03T10:38:03.332Z,21.33
2024-03-03T10:40:32.995Z,20.17
2024-03-03T10:43:00.604Z,18.67
2024-03-03T10:45:28.097Z,19.17
2024-03-03T10:47:55.768Z,18.80
2024-03-03T10:50:24.623Z,20.77
2024-03-03T10:52:54.418Z,19.07
2024-03-03T10:55:22.236Z,18.73
2024-03-03T10:57:52.084Z,19.03
2024-03-03T11:00:26.180Z,19.70
2024-03-03T11:02:56.223Z,20.73
2024-03-03T11:05:25.941Z,20.80
2024-03-03T11:07:54.487Z,21.10
2024-03-03T11:10:22.146Z,20.50
2024-03-03T11:12:52.832Z,20.37
2024-03-03T11:15:23.036Z,21.00
2024-03-03T11:18:01.442Z,20.90
2024-03-03T11:20:40.725Z,18.40
2024-03-03T11:23:37.047Z,20.47
2024-03-03T11:26:25.036Z,20.40
2024-03-03T11:28:59.355Z,20.87
2024-03-03T11:31:28.654Z,21.40
2024-03-03T11:33:57.673Z,19.90
2024-03-03T11:36:26.116Z,20.30
2024-03-03T11:38:57.155Z,21.23
2024-03-03T11:41:24.729Z,20.90
2024-03-03T11:43:53.191Z,22.73
2024-03-03T11:46:59.682Z,22.47
2024-03-03T11:49:27.121Z,21.13
2024-03-03T11:51:54.706Z,20.43
2024-03-03T11:54:41.124Z,19.67
2024-03-03T11:57:12.737Z,18.63
2024-03-03T11:59:47.651Z,20.23
2024-03-03T12:02:18.620Z,33.73
2024-03-03T12:04:47.879Z,19.10
2024-03-03T12:07:24.361Z,18.20
2024-03-03T12:09:55.602Z,17.83
2024-03-03T12:12:24.190Z,18.50
2024-03-03T12:14:52.996Z,17.83
2024-03-03T12:17:20.404Z,18.37
2024-03-03T12:19:48.321Z,17.43
2024-03-03T12:22:15.872Z,17.10
2024-03-03T12:24:45.014Z,18.73
2024-03-03T12:27:13.182Z,17.57
2024-03-03T12:30:04.441Z,17.13
2024-03-03T12:32:31.903Z,19.47
2024-03-03T12:34:59.211Z,18.60
2024-03-03T12:37:28.335Z,16.40
2024-03-03T12:39:58.417Z,18.67
2024-03-03T12:42:26.453Z,15.53
2024-03-03T12:44:56.303Z,16.43
2024-03-03T12:47:23.914Z,17.47
2024-03-03T12:49:51.781Z,19.30
2024-03-03T12:52:19.569Z,20.23
2024-03-03T12:54:48.836Z,21.47
2024-03-03T12:57:16.749Z,21.47
2024-03-03T12:59:44.231Z,21.47
2024-03-03T13:02:17.749Z,22.33
2024-03-03T13:04:45.221Z,21.77
2024-03-03T13:07:12.673Z,21.80
2024-03-03T13:09:41.242Z,21.93
2024-03-03T13:12:08.993Z,21.33
2024-03-03T13:14:36.894Z,22.30
2024-03-03T13:17:09.309Z,22.10
2024-03-03T13:19:53.815Z,21.63
2024-03-03T13:22:23.567Z,20.63
2024-03-03T13:25:00.765Z,21.43
2024-03-03T13:27:34.615Z,21.27
2024-03-03T13:30:08.708Z,20.63
2024-03-03T13:32:36.226Z,19.50
2024-03-03T13:35:04.060Z,20.83
2024-03-03T13:37:31.622Z,20.07
2024-03-03T13:39:59.607Z,21.70
2024-03-03T13:42:27.444Z,20.70
2024-03-03T13:44:54.893Z,22.53
2024-03-03T13:47:22.425Z,20.13
2024-03-03T13:49:50.521Z,21.60
2024-03-03T13:52:18.068Z,21.67
2024-03-03T13:54:45.635Z,22.70
2024-03-03T13:57:13.237Z,23.70
2024-03-03T13:59:41.041Z,22.43
2024-03-03T14:02:08.438Z,33.63
2024-03-03T14:04:36.520Z,22.30
2024-03-03T14:07:04.441Z,24.97
2024-03-03T14:09:32.184Z,25.63
2024-03-03T14:11:59.931Z,34.20
2024-03-03T14:14:27.360Z,25.93
2024-03-03T14:16:54.842Z,23.43
2024-03-03T14:19:22.330Z,22.67
2024-03-03T14:21:51.666Z,23.77
2024-03-03T14:24:20.171Z,25.67
2024-03-03T14:26:47.694Z,22.57
2024-03-03T14:29:15.145Z,22.47
2024-03-03T14:31:42.615Z,25.50
2024-03-03T14:34:10.045Z,26.20
2024-03-03T14:36:38.882Z,24.73
2024-03-03T14:39:07.442Z,26.30
2024-03-03T14:41:34.983Z,24.27
2024-03-03T14:44:02.470Z,24.70
2024-03-03T14:46:29.951Z,24.27
2024-03-03T14:48:57.440Z,25.67
2024-03-03T14:51:25.282Z,23.37
2024-03-03T14:53:52.752Z,23.80
2024-03-03T14:56:21.622Z,22.87
2024-03-03T14:58:49.218Z,22.60
2024-03-03T15:01:16.750Z,22.87
2024-03-03T15:03:44.132Z,23.87
2024-03-03T15:06:12.971Z,22.13
2024-03-03T15:08:40.588Z,22.73
2024-03-03T15:11:08.080Z,22.47
2024-03-03T15:13:35.548Z,21.70
2024-03-03T15:16:04.873Z,21.27
2024-03-03T15:18:32.453Z,22.83
2024-03-03T15:20:59.939Z,20.53
2024-03-03T15:23:27.381Z,19.80
2024-03-03T15:25:55.305Z,20.43
2024-03-03T15:28:23.856Z,20.87
2024-03-03T15:30:51.334Z,20.73
2024-03-03T15:33:20.773Z,51.73
2024-03-03T15:35:49.683Z,22.63
2024-03-03T15:38:17.200Z,21.20
2024-03-03T15:40:44.725Z,21.40
2024-03-03T15:43:12.636Z,20.17
2024-03-03T15:45:41.167Z,19.50
2024-03-03T15:48:08.855Z,19.43
2024-03-03T15:50:38.483Z,19.63
2024-03-03T15:53:06.312Z,27.20
2024-03-03T15:55:35.378Z,20.30
2024-03-03T15:58:04.832Z,19.90
2024-03-03T16:00:32.154Z,18.70
2024-03-03T16:03:01.558Z,18.17
2024-03-03T16:05:30.513Z,17.97
2024-03-03T16:07:58.191Z,17.50
2024-03-03T16:10:25.641Z,18.63
2024-03-03T16:12:53.164Z,18.33
2024-03-03T16:15:21.919Z,18.27
2024-03-03T16:17:49.488Z,16.60
2024-03-03T16:20:18.439Z,20.43
2024-03-03T16:22:45.847Z,19.37
2024-03-03T16:25:13.262Z,21.53
2024-03-03T16:27:40.712Z,19.53
2024-03-03T16:30:09.307Z,21.13
2024-03-03T16:32:37.325Z,20.03
2024-03-03T16:35:06.469Z,21.80
2024-03-03T16:37:34.084Z,19.67
2024-03-03T16:40:01.603Z,17.50
2024-03-03T16:42:29.461Z,18.17
2024-03-03T16:45:10.198Z,19.60
2024-03-03T16:47:38.009Z,17.93
2024-03-03T16:50:06.301Z,20.03
2024-03-03T16:52:34.971Z,19.27
2024-03-03T16:55:02.619Z,22.10
2024-03-03T16:57:30.347Z,22.00
2024-03-03T16:59:57.718Z,20.23
2024-03-03T17:02:26.044Z,18.23
2024-03-03T17:04:53.593Z,16.63
2024-03-03T17:07:21.627Z,16.53
2024-03-03T17:09:50.012Z,15.53
2024-03-03T17:12:18.485Z,16.10
2024-03-03T17:14:45.834Z,14.90
2024-03-03T17:17:13.362Z,15.87
2024-03-03T17:19:40.752Z,15.10
2024-03-03T17:22:09.910Z,14.73
2024-03-03T17:24:37.349Z,13.93
2024-03-03T17:27:05.471Z,14.37
2024-03-03T17:29:33.857Z,14.20
2024-03-03T17:32:01.382Z,13.97
2024-03-03T17:34:32.010Z,13.67
2024-03-03T17:36:59.580Z,13.03
2024-03-03T17:39:27.038Z,12.70
2024-03-03T17:41:55.333Z,12.73
2024-03-03T17:44:23.825Z,13.30
2024-03-03T17:46:51.452Z,12.57
2024-03-03T17:49:18.838Z,11.27
2024-03-03T17:51:46.489Z,11.43
2024-03-03T17:54:16.033Z,11.20
2024-03-03T17:56:45.255Z,11.13
2024-03-03T17:59:19.887Z,11.03
2024-03-03T18:01:48.284Z,11.03
2024-03-03T18:04:16.930Z,10.47
2024-03-03T18:06:44.829Z,11.13
2024-03-03T18:09:13.953Z,10.60
2024-03-03T18:11:41.461Z,10.03
2024-03-03T18:14:09.945Z,10.17
2024-03-03T18:16:37.509Z,10.57
2024-03-03T18:19:05.428Z,10.10
2024-03-03T18:21:32.918Z,9.97
2024-03-03T18:24:00.389Z,10.90
2024-03-03T18:26:27.839Z,9.90
2024-03-03T18:28:55.776Z,9.93
2024-03-03T18:31:23.633Z,10.40
2024-03-03T18:33:52.277Z,10.13
2024-03-03T18:36:21.115Z,10.13
2024-03-03T18:38:48.634Z,10.47
2024-03-03T18:41:18.215Z,10.37
2024-03-03T18:43:45.644Z,10.17
2024-03-03T18:46:19.387Z,11.00
2024-03-03T18:48:47.645Z,11.30
2024-03-03T18:51:15.931Z,10.87
2024-03-03T18:53:43.355Z,11.70
2024-03-03T18:56:10.906Z,11.20
2024-03-03T18:58:38.915Z,11.27
2024-03-03T19:01:06.481Z,10.80
2024-03-03T19:03:35.202Z,11.23
2024-03-03T19:06:02.577Z,11.23
2024-03-03T19:08:29.878Z,11.47
2024-03-03T19:10:57.770Z,12.13
2024-03-03T19:13:26.794Z,11.73
2024-03-03T19:15:54.548Z,11.80
2024-03-03T19:18:21.987Z,12.00
2024-03-03T19:20:49.814Z,11.97
2024-03-03T19:23:18.525Z,12.13
2024-03-03T19:25:46.359Z,12.60
2024-03-03T19:28:15.140Z,12.33
2024-03-03T19:30:44.241Z,12.30
2024-03-03T19:33:13.787Z,11.87
2024-03-03T19:35:43.033Z,12.93
2024-03-03T19:38:10.312Z,12.53
2024-03-03T19:40:37.726Z,13.03
2024-03-03T19:43:05.322Z,13.43
2024-03-03T19:45:32.779Z,13.70
2024-03-03T19:48:02.783Z,13.00
2024-03-03T19:50:30.163Z,14.17
2024-03-03T19:52:57.476Z,14.23
2024-03-03T19:55:26.061Z,14.37
2024-03-03T19:57:54.062Z,14.80
2024-03-03T20:00:22.777Z,15.07
2024-03-03T20:02:50.203Z,14.47
2024-03-03T20:05:17.949Z,14.40
2024-03-03T20:07:45.423Z,13.80
2024-03-03T20:10:13.367Z,15.03
2024-03-03T20:12:41.126Z,15.17
2024-03-03T20:15:13.540Z,15.70
2024-03-03T20:17:41.157Z,15.87
2024-03-03T20:20:13.144Z,15.23
2024-03-03T20:22:41.155Z,15.30
2024-03-03T20:25:10.444Z,15.00
2024-03-03T20:27:38.652Z,15.17
2024-03-03T20:30:07.608Z,14.77
2024-03-03T20:32:35.388Z,15.50
2024-03-03T20:35:04.015Z,15.43
2024-03-03T20:37:32.218Z,15.07
2024-03-03T20:39:59.657Z,15.63
2024-03-03T20:42:27.310Z,15.27
2024-03-03T20:44:54.697Z,15.97
2024-03-03T20:47:22.110Z,15.60
2024-03-03T20:49:52.138Z,15.83
2024-03-03T20:52:19.842Z,15.80
2024-03-03T20:54:47.769Z,15.37
2024-03-03T20:57:15.385Z,16.03
2024-03-03T20:59:42.806Z,15.23
2024-03-03T21:02:13.194Z,15.53
2024-03-03T21:04:44.162Z,16.60
2024-03-03T21:07:17.276Z,15.40
2024-03-03T21:09:44.822Z,16.07
2024-03-03T21:12:14.383Z,15.33
2024-03-03T21:14:47.483Z,15.87
2024-03-03T21:17:16.079Z,15.10
2024-03-03T21:19:44.674Z,16.90
2024-03-03T21:22:15.028Z,16.13
2024-03-03T21:24:45.258Z,16.70
2024-03-03T21:27:14.633Z,16.13
2024-03-03T21:29:45.515Z,16.87
2024-03-03T21:32:13.380Z,16.17
2024-03-03T21:34:42.432Z,16.03
2024-03-03T21:37:15.196Z,16.87
2024-03-03T21:39:44.547Z,16.70
2024-03-03T21:42:11.993Z,15.67
2024-03-03T21:44:45.570Z,15.80
2024-03-03T21:47:13.611Z,15.83
2024-03-03T21:49:41.608Z,16.03
2024-03-03T21:52:11.211Z,15.83
2024-03-03T21:54:40.108Z,16.30
2024-03-03T21:57:13.478Z,15.60
2024-03-03T21:59:46.027Z,16.43
2024-03-03T22:02:13.531Z,16.27
2024-03-03T22:04:43.383Z,16.10
2024-03-03T22:07:12.642Z,16.00
2024-03-03T22:09:46.594Z,16.43
2024-03-03T22:12:16.148Z,15.80
2024-03-03T22:14:43.982Z,16.00
2024-03-03T22:17:13.725Z,15.77
2024-03-03T22:19:44.835Z,16.17
2024-03-03T22:22:14.622Z,15.63
2024-03-03T22:27:24.716Z,15.00
2024-03-03T22:29:52.136Z,16.07
2024-03-03T22:32:22.340Z,16.63
2024-03-03T22:34:51.549Z,16.17
2024-03-03T22:37:19.197Z,16.47
2024-03-03T22:39:47.137Z,16.73
2024-03-03T22:42:17.262Z,16.30
2024-03-03T22:44:45.075Z,16.00
2024-03-03T22:47:17.768Z,17.10
2024-03-03T22:49:45.483Z,16.40
2024-03-03T22:52:20.345Z,15.90
2024-03-03T22:54:47.893Z,16.77
2024-03-03T22:57:15.476Z,16.93
2024-03-03T22:59:54.498Z,16.47
2024-03-03T23:02:23.843Z,16.63
2024-03-03T23:04:55.623Z,16.70
2024-03-03T23:07:24.854Z,16.90
2024-03-03T23:09:53.685Z,17.63
2024-03-03T23:12:22.876Z,16.53
2024-03-03T23:14:51.546Z,16.97
2024-03-03T23:17:19.553Z,17.73
2024-03-03T23:19:47.877Z,17.33
2024-03-03T23:22:17.001Z,16.23
2024-03-03T23:24:47.305Z,16.67
2024-03-03T23:27:17.359Z,17.10
2024-03-03T23:29:45.712Z,16.47
2024-03-03T23:32:13.075Z,16.93
2024-03-03T23:34:42.504Z,16.43
2024-03-03T23:37:11.877Z,17.30
2024-03-03T23:39:41.798Z,17.40
2024-03-03T23:42:12.544Z,18.43
2024-03-03T23:44:40.486Z,17.40
2024-03-03T23:47:10.373Z,19.30
2024-03-03T23:49:38.106Z,18.57
2024-03-03T23:52:08.564Z,18.77
2024-03-03T23:54:37.788Z,18.43
2024-03-03T23:57:08.202Z,19.13
2024-03-03T23:59:35.807Z,19.13
